sensor_id;sensor_type;location;lat;lon;timestamp;temperature;humidity
22071;DHT22;11200;51.488;6.668;2023-04-26T00:00:23;4.70;99.90
22071;DHT22;11200;51.488;6.668;2023-04-26T00:02:49;5.20;99.90
22071;DHT22;11200;51.488;6.668;2023-04-26T00:05:15;4.90;99.90
22071;DHT22;11200;51.488;6.668;2023-04-26T00:07:41;4.80;99.90
22071;DHT22;11200;51.488;6.668;2023-04-26T00:10:08;4.60;99.90
22071;DHT22;11200;51.488;6.668;2023-04-26T00:12:35;4.70;99.90
22071;DHT22;11200;51.488;6.668;2023-04-26T00:15:02;4.70;99.90
22071;DHT22;11200;51.488;6.668;2023-04-26T00:17:28;4.70;99.90
22071;DHT22;11200;51.488;6.668;2023-04-26T00:19:54;4.50;99.90
22071;DHT22;11200;51.488;6.668;2023-04-26T00:22:22;4.60;99.90
22071;DHT22;11200;51.488;6.668;2023-04-26T00:24:47;5.10;99.90
22071;DHT22;11200;51.488;6.668;2023-04-26T00:27:13;4.60;99.90
22071;DHT22;11200;51.488;6.668;2023-04-26T00:29:39;4.30;99.90
22071;DHT22;11200;51.488;6.668;2023-04-26T00:32:04;4.20;99.90
22071;DHT22;11200;51.488;6.668;2023-04-26T00:34:34;4.50;99.90
22071;DHT22;11200;51.488;6.668;2023-04-26T00:37:01;4.20;99.90
22071;DHT22;11200;51.488;6.668;2023-04-26T00:39:27;4.20;99.90
22071;DHT22;11200;51.488;6.668;2023-04-26T00:41:53;4.40;99.90
22071;DHT22;11200;51.488;6.668;2023-04-26T00:44:18;4.50;99.90
22071;DHT22;11200;51.488;6.668;2023-04-26T00:46:44;4.30;99.90
22071;DHT22;11200;51.488;6.668;2023-04-26T00:49:15;4.30;99.90
22071;DHT22;11200;51.488;6.668;2023-04-26T00:51:43;4.00;99.90
22071;DHT22;11200;51.488;6.668;2023-04-26T00:54:11;4.10;99.90
22071;DHT22;11200;51.488;6.668;2023-04-26T00:56:38;4.20;99.90
22071;DHT22;11200;51.488;6.668;2023-04-26T00:59:03;4.00;99.90
22071;DHT22;11200;51.488;6.668;2023-04-26T01:01:29;4.40;99.90
22071;DHT22;11200;51.488;6.668;2023-04-26T01:03:55;5.00;99.90
22071;DHT22;11200;51.488;6.668;2023-04-26T01:06:21;4.10;99.90
22071;DHT22;11200;51.488;6.668;2023-04-26T01:08:48;4.20;99.90
22071;DHT22;11200;51.488;6.668;2023-04-26T01:11:16;4.10;99.90
22071;DHT22;11200;51.488;6.668;2023-04-26T01:13:44;3.90;99.90
22071;DHT22;11200;51.488;6.668;2023-04-26T01:16:10;4.20;99.90
22071;DHT22;11200;51.488;6.668;2023-04-26T01:18:35;4.00;99.90
22071;DHT22;11200;51.488;6.668;2023-04-26T01:21:01;3.70;99.90
22071;DHT22;11200;51.488;6.668;2023-04-26T01:23:29;4.00;99.90
22071;DHT22;11200;51.488;6.668;2023-04-26T01:25:55;3.70;99.90
22071;DHT22;11200;51.488;6.668;2023-04-26T01:28:21;3.70;99.90
22071;DHT22;11200;51.488;6.668;2023-04-26T01:30:47;4.20;99.90
22071;DHT22;11200;51.488;6.668;2023-04-26T01:33:13;3.70;99.90
22071;DHT22;11200;51.488;6.668;2023-04-26T01:35:40;3.70;99.90
22071;DHT22;11200;51.488;6.668;2023-04-26T01:38:06;3.70;99.90
22071;DHT22;11200;51.488;6.668;2023-04-26T01:40:32;3.60;99.90
22071;DHT22;11200;51.488;6.668;2023-04-26T01:42:58;3.70;99.90
22071;DHT22;11200;51.488;6.668;2023-04-26T01:45:24;3.80;99.90
22071;DHT22;11200;51.488;6.668;2023-04-26T01:47:50;3.80;99.90
22071;DHT22;11200;51.488;6.668;2023-04-26T01:50:15;3.50;99.90
22071;DHT22;11200;51.488;6.668;2023-04-26T01:52:41;3.70;99.90
22071;DHT22;11200;51.488;6.668;2023-04-26T01:55:07;3.90;99.90
22071;DHT22;11200;51.488;6.668;2023-04-26T01:57:33;3.70;99.90
22071;DHT22;11200;51.488;6.668;2023-04-26T01:59:58;3.70;99.90
22071;DHT22;11200;51.488;6.668;2023-04-26T02:02:27;3.70;99.90
22071;DHT22;11200;51.488;6.668;2023-04-26T02:04:52;3.60;99.90
22071;DHT22;11200;51.488;6.668;2023-04-26T02:07:18;3.60;99.90
22071;DHT22;11200;51.488;6.668;2023-04-26T02:09:44;3.30;99.90
22071;DHT22;11200;51.488;6.668;2023-04-26T02:12:10;3.60;99.90
22071;DHT22;11200;51.488;6.668;2023-04-26T02:14:36;3.60;99.90
22071;DHT22;11200;51.488;6.668;2023-04-26T02:17:03;3.60;99.90
22071;DHT22;11200;51.488;6.668;2023-04-26T02:19:28;3.80;99.90
22071;DHT22;11200;51.488;6.668;2023-04-26T02:21:55;3.40;99.90
22071;DHT22;11200;51.488;6.668;2023-04-26T02:24:22;4.00;99.90
22071;DHT22;11200;51.488;6.668;2023-04-26T02:26:48;3.50;99.90
22071;DHT22;11200;51.488;6.668;2023-04-26T02:29:14;3.20;99.90
22071;DHT22;11200;51.488;6.668;2023-04-26T02:31:40;3.30;99.90
22071;DHT22;11200;51.488;6.668;2023-04-26T02:34:05;3.30;99.90
22071;DHT22;11200;51.488;6.668;2023-04-26T02:36:31;4.10;99.90
22071;DHT22;11200;51.488;6.668;2023-04-26T02:38:58;3.10;99.90
22071;DHT22;11200;51.488;6.668;2023-04-26T02:41:23;3.80;99.90
22071;DHT22;11200;51.488;6.668;2023-04-26T02:43:49;3.80;99.90
22071;DHT22;11200;51.488;6.668;2023-04-26T02:46:17;3.10;99.90
22071;DHT22;11200;51.488;6.668;2023-04-26T02:48:42;3.60;99.90
22071;DHT22;11200;51.488;6.668;2023-04-26T02:51:08;3.30;99.90
22071;DHT22;11200;51.488;6.668;2023-04-26T02:53:33;3.10;99.90
22071;DHT22;11200;51.488;6.668;2023-04-26T02:55:59;3.30;99.90
22071;DHT22;11200;51.488;6.668;2023-04-26T02:58:27;3.60;99.90
22071;DHT22;11200;51.488;6.668;2023-04-26T03:00:53;3.00;99.90
22071;DHT22;11200;51.488;6.668;2023-04-26T03:03:20;3.00;99.90
22071;DHT22;11200;51.488;6.668;2023-04-26T03:05:45;3.00;99.90
22071;DHT22;11200;51.488;6.668;2023-04-26T03:08:11;3.20;99.90
22071;DHT22;11200;51.488;6.668;2023-04-26T03:10:37;3.00;99.90
22071;DHT22;11200;51.488;6.668;2023-04-26T03:13:05;3.30;99.90
22071;DHT22;11200;51.488;6.668;2023-04-26T03:15:31;3.20;99.90
22071;DHT22;11200;51.488;6.668;2023-04-26T03:17:57;3.10;99.90
22071;DHT22;11200;51.488;6.668;2023-04-26T03:20:23;3.00;99.90
22071;DHT22;11200;51.488;6.668;2023-04-26T03:22:49;2.90;99.90
22071;DHT22;11200;51.488;6.668;2023-04-26T03:25:15;2.80;99.90
22071;DHT22;11200;51.488;6.668;2023-04-26T03:27:41;3.10;99.90
22071;DHT22;11200;51.488;6.668;2023-04-26T03:30:07;2.80;99.90
22071;DHT22;11200;51.488;6.668;2023-04-26T03:32:33;3.00;99.90
22071;DHT22;11200;51.488;6.668;2023-04-26T03:34:58;3.30;99.90
22071;DHT22;11200;51.488;6.668;2023-04-26T03:37:24;2.70;99.90
22071;DHT22;11200;51.488;6.668;2023-04-26T03:39:50;2.80;99.90
22071;DHT22;11200;51.488;6.668;2023-04-26T03:42:18;2.70;99.90
22071;DHT22;11200;51.488;6.668;2023-04-26T03:44:44;2.90;99.90
22071;DHT22;11200;51.488;6.668;2023-04-26T03:47:10;2.90;99.90
22071;DHT22;11200;51.488;6.668;2023-04-26T03:49:35;2.80;99.90
22071;DHT22;11200;51.488;6.668;2023-04-26T03:52:01;2.90;99.90
22071;DHT22;11200;51.488;6.668;2023-04-26T03:54:26;2.90;99.90
22071;DHT22;11200;51.488;6.668;2023-04-26T03:56:52;3.10;99.90
22071;DHT22;11200;51.488;6.668;2023-04-26T03:59:17;2.60;99.90
22071;DHT22;11200;51.488;6.668;2023-04-26T04:01:44;2.80;99.90
22071;DHT22;11200;51.488;6.668;2023-04-26T04:04:13;2.80;99.90
22071;DHT22;11200;51.488;6.668;2023-04-26T04:06:50;2.60;99.90
22071;DHT22;11200;51.488;6.668;2023-04-26T04:09:16;2.80;99.90
22071;DHT22;11200;51.488;6.668;2023-04-26T04:11:41;4.40;99.90
22071;DHT22;11200;51.488;6.668;2023-04-26T04:14:07;3.70;99.90
22071;DHT22;11200;51.488;6.668;2023-04-26T04:16:32;3.40;99.90
22071;DHT22;11200;51.488;6.668;2023-04-26T04:18:58;2.50;99.90
22071;DHT22;11200;51.488;6.668;2023-04-26T04:21:23;2.50;99.90
22071;DHT22;11200;51.488;6.668;2023-04-26T04:23:50;2.60;99.90
22071;DHT22;11200;51.488;6.668;2023-04-26T04:26:15;2.70;99.90
22071;DHT22;11200;51.488;6.668;2023-04-26T04:28:41;2.70;99.90
22071;DHT22;11200;51.488;6.668;2023-04-26T04:31:07;2.60;99.90
22071;DHT22;11200;51.488;6.668;2023-04-26T04:33:37;2.90;99.90
22071;DHT22;11200;51.488;6.668;2023-04-26T04:36:03;2.50;99.90
22071;DHT22;11200;51.488;6.668;2023-04-26T04:38:29;2.60;99.90
22071;DHT22;11200;51.488;6.668;2023-04-26T04:40:55;2.60;99.90
22071;DHT22;11200;51.488;6.668;2023-04-26T04:43:21;2.50;99.90
22071;DHT22;11200;51.488;6.668;2023-04-26T04:45:47;2.40;99.90
22071;DHT22;11200;51.488;6.668;2023-04-26T04:48:16;2.60;99.90
22071;DHT22;11200;51.488;6.668;2023-04-26T04:50:42;2.60;99.90
22071;DHT22;11200;51.488;6.668;2023-04-26T04:53:09;2.40;99.90
22071;DHT22;11200;51.488;6.668;2023-04-26T04:55:34;2.50;99.90
22071;DHT22;11200;51.488;6.668;2023-04-26T04:58:02;3.10;99.90
22071;DHT22;11200;51.488;6.668;2023-04-26T05:00:28;2.50;99.90
22071;DHT22;11200;51.488;6.668;2023-04-26T05:02:54;2.40;99.90
22071;DHT22;11200;51.488;6.668;2023-04-26T05:05:20;2.80;99.90
22071;DHT22;11200;51.488;6.668;2023-04-26T05:07:46;2.50;99.90
22071;DHT22;11200;51.488;6.668;2023-04-26T05:10:11;2.20;99.90
22071;DHT22;11200;51.488;6.668;2023-04-26T05:12:37;2.50;99.90
22071;DHT22;11200;51.488;6.668;2023-04-26T05:15:03;2.50;99.90
22071;DHT22;11200;51.488;6.668;2023-04-26T05:17:29;2.50;99.90
22071;DHT22;11200;51.488;6.668;2023-04-26T05:19:56;2.30;99.90
22071;DHT22;11200;51.488;6.668;2023-04-26T05:22:22;2.30;99.90
22071;DHT22;11200;51.488;6.668;2023-04-26T05:24:48;2.50;99.90
22071;DHT22;11200;51.488;6.668;2023-04-26T05:27:15;2.20;99.90
22071;DHT22;11200;51.488;6.668;2023-04-26T05:29:42;2.50;99.90
22071;DHT22;11200;51.488;6.668;2023-04-26T05:32:07;2.30;99.90
22071;DHT22;11200;51.488;6.668;2023-04-26T05:34:33;2.20;99.90
22071;DHT22;11200;51.488;6.668;2023-04-26T05:36:59;2.50;99.90
22071;DHT22;11200;51.488;6.668;2023-04-26T05:39:24;3.10;99.90
22071;DHT22;11200;51.488;6.668;2023-04-26T05:41:50;2.40;99.90
22071;DHT22;11200;51.488;6.668;2023-04-26T05:44:16;2.30;99.90
22071;DHT22;11200;51.488;6.668;2023-04-26T05:46:42;2.40;99.90
22071;DHT22;11200;51.488;6.668;2023-04-26T05:49:08;2.40;99.90
22071;DHT22;11200;51.488;6.668;2023-04-26T05:51:33;2.60;99.90
22071;DHT22;11200;51.488;6.668;2023-04-26T05:53:59;2.60;99.90
22071;DHT22;11200;51.488;6.668;2023-04-26T05:56:25;2.40;99.90
22071;DHT22;11200;51.488;6.668;2023-04-26T05:58:51;2.50;99.90
22071;DHT22;11200;51.488;6.668;2023-04-26T06:01:17;2.80;99.90
22071;DHT22;11200;51.488;6.668;2023-04-26T06:03:45;2.60;99.90
22071;DHT22;11200;51.488;6.668;2023-04-26T06:06:10;2.60;99.90
22071;DHT22;11200;51.488;6.668;2023-04-26T06:08:36;2.80;99.90
22071;DHT22;11200;51.488;6.668;2023-04-26T06:11:03;2.80;99.90
22071;DHT22;11200;51.488;6.668;2023-04-26T06:13:28;3.00;99.90
22071;DHT22;11200;51.488;6.668;2023-04-26T06:15:54;2.90;99.90
22071;DHT22;11200;51.488;6.668;2023-04-26T06:18:20;3.10;99.90
22071;DHT22;11200;51.488;6.668;2023-04-26T06:20:46;3.70;99.90
22071;DHT22;11200;51.488;6.668;2023-04-26T06:23:11;3.00;99.90
22071;DHT22;11200;51.488;6.668;2023-04-26T06:25:37;2.90;99.90
22071;DHT22;11200;51.488;6.668;2023-04-26T06:28:08;3.20;99.90
22071;DHT22;11200;51.488;6.668;2023-04-26T06:30:34;3.50;99.90
22071;DHT22;11200;51.488;6.668;2023-04-26T06:32:59;3.90;99.90
22071;DHT22;11200;51.488;6.668;2023-04-26T06:35:25;4.00;99.90
22071;DHT22;11200;51.488;6.668;2023-04-26T06:37:52;3.20;99.90
22071;DHT22;11200;51.488;6.668;2023-04-26T06:40:18;3.30;99.90
22071;DHT22;11200;51.488;6.668;2023-04-26T06:42:44;3.50;99.90
22071;DHT22;11200;51.488;6.668;2023-04-26T06:45:10;4.30;99.90
22071;DHT22;11200;51.488;6.668;2023-04-26T06:47:37;3.60;99.90
22071;DHT22;11200;51.488;6.668;2023-04-26T06:50:03;3.60;99.90
22071;DHT22;11200;51.488;6.668;2023-04-26T06:52:29;3.80;99.90
22071;DHT22;11200;51.488;6.668;2023-04-26T06:54:55;3.70;99.90
22071;DHT22;11200;51.488;6.668;2023-04-26T06:57:21;3.90;99.90
22071;DHT22;11200;51.488;6.668;2023-04-26T06:59:47;3.90;99.90
22071;DHT22;11200;51.488;6.668;2023-04-26T07:02:14;4.20;99.90
22071;DHT22;11200;51.488;6.668;2023-04-26T07:04:39;4.60;99.90
22071;DHT22;11200;51.488;6.668;2023-04-26T07:07:05;4.60;99.90
22071;DHT22;11200;51.488;6.668;2023-04-26T07:09:31;4.40;99.90
22071;DHT22;11200;51.488;6.668;2023-04-26T07:11:56;4.10;99.90
22071;DHT22;11200;51.488;6.668;2023-04-26T07:14:24;4.90;99.90
22071;DHT22;11200;51.488;6.668;2023-04-26T07:16:49;4.30;99.90
22071;DHT22;11200;51.488;6.668;2023-04-26T07:19:16;4.30;99.90
22071;DHT22;11200;51.488;6.668;2023-04-26T07:21:42;4.20;99.90
22071;DHT22;11200;51.488;6.668;2023-04-26T07:24:07;4.50;99.90
22071;DHT22;11200;51.488;6.668;2023-04-26T07:26:34;4.50;99.90
22071;DHT22;11200;51.488;6.668;2023-04-26T07:29:00;4.70;99.90
22071;DHT22;11200;51.488;6.668;2023-04-26T07:31:26;5.20;99.90
22071;DHT22;11200;51.488;6.668;2023-04-26T07:33:51;4.80;99.90
22071;DHT22;11200;51.488;6.668;2023-04-26T07:36:20;4.70;99.90
22071;DHT22;11200;51.488;6.668;2023-04-26T07:38:45;5.20;99.90
22071;DHT22;11200;51.488;6.668;2023-04-26T07:41:11;5.10;99.90
22071;DHT22;11200;51.488;6.668;2023-04-26T07:43:37;5.10;99.90
22071;DHT22;11200;51.488;6.668;2023-04-26T07:46:03;5.30;99.90
22071;DHT22;11200;51.488;6.668;2023-04-26T07:48:30;5.30;99.90
22071;DHT22;11200;51.488;6.668;2023-04-26T07:50:56;5.30;99.90
22071;DHT22;11200;51.488;6.668;2023-04-26T07:53:22;5.30;99.90
22071;DHT22;11200;51.488;6.668;2023-04-26T07:55:49;6.20;99.90
22071;DHT22;11200;51.488;6.668;2023-04-26T07:58:15;6.20;99.90
22071;DHT22;11200;51.488;6.668;2023-04-26T08:00:41;5.90;99.90
22071;DHT22;11200;51.488;6.668;2023-04-26T08:03:07;6.00;99.90
22071;DHT22;11200;51.488;6.668;2023-04-26T08:05:32;5.70;99.90
22071;DHT22;11200;51.488;6.668;2023-04-26T08:07:58;6.50;99.90
22071;DHT22;11200;51.488;6.668;2023-04-26T08:10:25;6.30;99.90
22071;DHT22;11200;51.488;6.668;2023-04-26T08:12:51;6.40;99.90
22071;DHT22;11200;51.488;6.668;2023-04-26T08:15:17;6.50;99.90
22071;DHT22;11200;51.488;6.668;2023-04-26T08:17:43;6.60;99.90
22071;DHT22;11200;51.488;6.668;2023-04-26T08:20:09;6.60;99.90
22071;DHT22;11200;51.488;6.668;2023-04-26T08:22:34;6.60;99.90
22071;DHT22;11200;51.488;6.668;2023-04-26T08:25:00;6.70;99.90
22071;DHT22;11200;51.488;6.668;2023-04-26T08:27:25;7.00;99.90
22071;DHT22;11200;51.488;6.668;2023-04-26T08:29:53;6.80;99.90
22071;DHT22;11200;51.488;6.668;2023-04-26T08:32:18;6.70;99.90
22071;DHT22;11200;51.488;6.668;2023-04-26T08:34:44;7.00;99.90
22071;DHT22;11200;51.488;6.668;2023-04-26T08:37:10;7.60;99.90
22071;DHT22;11200;51.488;6.668;2023-04-26T08:39:36;7.60;99.90
22071;DHT22;11200;51.488;6.668;2023-04-26T08:42:12;7.30;99.90
22071;DHT22;11200;51.488;6.668;2023-04-26T08:44:42;7.50;99.90
22071;DHT22;11200;51.488;6.668;2023-04-26T08:47:18;7.70;99.90
22071;DHT22;11200;51.488;6.668;2023-04-26T08:49:53;7.80;99.90
22071;DHT22;11200;51.488;6.668;2023-04-26T08:52:26;8.00;99.90
22071;DHT22;11200;51.488;6.668;2023-04-26T08:54:53;8.00;99.90
22071;DHT22;11200;51.488;6.668;2023-04-26T08:57:20;8.10;99.90
22071;DHT22;11200;51.488;6.668;2023-04-26T08:59:47;8.30;99.90
22071;DHT22;11200;51.488;6.668;2023-04-26T09:02:18;8.40;99.90
22071;DHT22;11200;51.488;6.668;2023-04-26T09:04:49;8.50;99.90
22071;DHT22;11200;51.488;6.668;2023-04-26T09:07:28;8.70;99.90
22071;DHT22;11200;51.488;6.668;2023-04-26T09:09:57;8.70;99.90
22071;DHT22;11200;51.488;6.668;2023-04-26T09:12:23;8.80;99.90
22071;DHT22;11200;51.488;6.668;2023-04-26T09:14:49;8.90;99.90
22071;DHT22;11200;51.488;6.668;2023-04-26T09:17:28;8.90;99.90
22071;DHT22;11200;51.488;6.668;2023-04-26T09:19:55;9.20;99.90
22071;DHT22;11200;51.488;6.668;2023-04-26T09:22:34;9.30;99.90
22071;DHT22;11200;51.488;6.668;2023-04-26T09:25:04;9.40;99.90
22071;DHT22;11200;51.488;6.668;2023-04-26T09:27:35;9.40;99.90
22071;DHT22;11200;51.488;6.668;2023-04-26T09:30:08;9.50;99.90
22071;DHT22;11200;51.488;6.668;2023-04-26T09:35:29;9.70;99.90
22071;DHT22;11200;51.488;6.668;2023-04-26T09:40:21;9.80;99.90
22071;DHT22;11200;51.488;6.668;2023-04-26T09:45:26;10.00;99.90
22071;DHT22;11200;51.488;6.668;2023-04-26T09:47:52;10.10;99.90
22071;DHT22;11200;51.488;6.668;2023-04-26T09:50:28;10.10;99.90
22071;DHT22;11200;51.488;6.668;2023-04-26T09:52:54;10.20;99.90
22071;DHT22;11200;51.488;6.668;2023-04-26T09:55:30;10.30;99.90
22071;DHT22;11200;51.488;6.668;2023-04-26T09:57:56;10.30;99.90
22071;DHT22;11200;51.488;6.668;2023-04-26T10:00:25;10.40;99.90
22071;DHT22;11200;51.488;6.668;2023-04-26T10:02:53;10.40;99.90
22071;DHT22;11200;51.488;6.668;2023-04-26T10:05:19;10.40;99.90
22071;DHT22;11200;51.488;6.668;2023-04-26T10:07:46;10.40;99.90
22071;DHT22;11200;51.488;6.668;2023-04-26T10:10:12;10.40;99.90
22071;DHT22;11200;51.488;6.668;2023-04-26T10:12:40;10.40;99.90
22071;DHT22;11200;51.488;6.668;2023-04-26T10:15:08;10.40;99.90
22071;DHT22;11200;51.488;6.668;2023-04-26T10:17:34;10.40;99.90
22071;DHT22;11200;51.488;6.668;2023-04-26T10:20:12;10.50;99.90
22071;DHT22;11200;51.488;6.668;2023-04-26T10:22:45;10.50;99.90
22071;DHT22;11200;51.488;6.668;2023-04-26T10:25:15;10.50;99.90
22071;DHT22;11200;51.488;6.668;2023-04-26T10:30:20;10.50;99.90
22071;DHT22;11200;51.488;6.668;2023-04-26T10:35:28;10.50;99.90
22071;DHT22;11200;51.488;6.668;2023-04-26T10:40:30;10.70;99.90
22071;DHT22;11200;51.488;6.668;2023-04-26T10:45:47;11.00;99.90
22071;DHT22;11200;51.488;6.668;2023-04-26T10:48:20;11.30;99.90
22071;DHT22;11200;51.488;6.668;2023-04-26T10:56:10;12.10;99.90
22071;DHT22;11200;51.488;6.668;2023-04-26T10:58:39;12.30;99.90
22071;DHT22;11200;51.488;6.668;2023-04-26T11:01:17;12.60;99.90
22071;DHT22;11200;51.488;6.668;2023-04-26T11:04:07;12.90;99.90
22071;DHT22;11200;51.488;6.668;2023-04-26T11:06:52;13.20;99.90
22071;DHT22;11200;51.488;6.668;2023-04-26T11:09:38;13.40;99.90
22071;DHT22;11200;51.488;6.668;2023-04-26T11:12:14;13.60;99.90
22071;DHT22;11200;51.488;6.668;2023-04-26T11:14:44;13.80;99.90
22071;DHT22;11200;51.488;6.668;2023-04-26T11:17:11;14.00;99.90
22071;DHT22;11200;51.488;6.668;2023-04-26T11:19:40;14.10;99.90
22071;DHT22;11200;51.488;6.668;2023-04-26T11:22:06;14.20;99.90
22071;DHT22;11200;51.488;6.668;2023-04-26T11:24:33;14.20;99.90
22071;DHT22;11200;51.488;6.668;2023-04-26T11:27:10;14.20;99.90
22071;DHT22;11200;51.488;6.668;2023-04-26T11:29:36;14.20;99.90
22071;DHT22;11200;51.488;6.668;2023-04-26T11:32:02;14.20;99.90
22071;DHT22;11200;51.488;6.668;2023-04-26T11:34:31;14.20;99.90
22071;DHT22;11200;51.488;6.668;2023-04-26T11:37:00;14.20;99.90
22071;DHT22;11200;51.488;6.668;2023-04-26T11:39:25;14.30;99.90
22071;DHT22;11200;51.488;6.668;2023-04-26T11:42:03;14.30;99.90
22071;DHT22;11200;51.488;6.668;2023-04-26T11:44:31;14.40;99.90
22071;DHT22;11200;51.488;6.668;2023-04-26T11:46:57;14.40;99.90
22071;DHT22;11200;51.488;6.668;2023-04-26T11:49:23;14.50;99.90
22071;DHT22;11200;51.488;6.668;2023-04-26T11:51:49;14.50;99.90
22071;DHT22;11200;51.488;6.668;2023-04-26T11:54:28;14.60;99.90
22071;DHT22;11200;51.488;6.668;2023-04-26T11:56:54;14.70;99.90
22071;DHT22;11200;51.488;6.668;2023-04-26T11:59:25;14.70;99.90
22071;DHT22;11200;51.488;6.668;2023-04-26T12:01:50;14.90;99.90
22071;DHT22;11200;51.488;6.668;2023-04-26T12:04:17;14.90;99.90
22071;DHT22;11200;51.488;6.668;2023-04-26T12:06:44;15.10;99.90
22071;DHT22;11200;51.488;6.668;2023-04-26T12:09:10;15.20;99.90
22071;DHT22;11200;51.488;6.668;2023-04-26T12:11:39;15.40;99.90
22071;DHT22;11200;51.488;6.668;2023-04-26T12:14:06;15.60;99.90
22071;DHT22;11200;51.488;6.668;2023-04-26T12:16:36;15.70;99.90
22071;DHT22;11200;51.488;6.668;2023-04-26T12:19:04;15.80;99.90
22071;DHT22;11200;51.488;6.668;2023-04-26T12:21:42;15.80;99.90
22071;DHT22;11200;51.488;6.668;2023-04-26T12:24:21;15.90;99.90
22071;DHT22;11200;51.488;6.668;2023-04-26T12:26:47;16.00;99.90
22071;DHT22;11200;51.488;6.668;2023-04-26T12:29:13;16.00;99.90
22071;DHT22;11200;51.488;6.668;2023-04-26T12:31:38;16.00;99.90
22071;DHT22;11200;51.488;6.668;2023-04-26T12:34:04;15.90;99.90
22071;DHT22;11200;51.488;6.668;2023-04-26T12:36:30;15.90;99.90
22071;DHT22;11200;51.488;6.668;2023-04-26T12:38:56;15.80;99.90
22071;DHT22;11200;51.488;6.668;2023-04-26T12:41:22;15.70;99.90
22071;DHT22;11200;51.488;6.668;2023-04-26T12:43:47;15.70;99.90
22071;DHT22;11200;51.488;6.668;2023-04-26T12:46:13;15.70;99.90
22071;DHT22;11200;51.488;6.668;2023-04-26T12:48:39;15.60;99.90
22071;DHT22;11200;51.488;6.668;2023-04-26T12:51:06;15.50;99.90
22071;DHT22;11200;51.488;6.668;2023-04-26T12:53:31;15.40;99.90
22071;DHT22;11200;51.488;6.668;2023-04-26T12:55:58;15.40;99.90
22071;DHT22;11200;51.488;6.668;2023-04-26T12:58:24;15.40;99.90
22071;DHT22;11200;51.488;6.668;2023-04-26T13:00:49;15.20;99.90
22071;DHT22;11200;51.488;6.668;2023-04-26T13:03:16;15.20;99.90
22071;DHT22;11200;51.488;6.668;2023-04-26T13:05:42;15.20;99.90
22071;DHT22;11200;51.488;6.668;2023-04-26T13:08:08;15.10;99.90
22071;DHT22;11200;51.488;6.668;2023-04-26T13:10:37;15.10;99.90
22071;DHT22;11200;51.488;6.668;2023-04-26T13:13:03;15.00;99.90
22071;DHT22;11200;51.488;6.668;2023-04-26T13:15:38;14.90;99.90
22071;DHT22;11200;51.488;6.668;2023-04-26T13:18:04;14.90;99.90
22071;DHT22;11200;51.488;6.668;2023-04-26T13:20:30;14.80;99.90
22071;DHT22;11200;51.488;6.668;2023-04-26T13:22:55;14.80;99.90
22071;DHT22;11200;51.488;6.668;2023-04-26T13:25:21;14.70;99.90
22071;DHT22;11200;51.488;6.668;2023-04-26T13:27:47;14.70;99.90
22071;DHT22;11200;51.488;6.668;2023-04-26T13:30:13;14.70;99.90
22071;DHT22;11200;51.488;6.668;2023-04-26T13:32:39;14.60;99.90
22071;DHT22;11200;51.488;6.668;2023-04-26T13:35:05;14.60;99.90
22071;DHT22;11200;51.488;6.668;2023-04-26T13:37:31;14.50;99.90
22071;DHT22;11200;51.488;6.668;2023-04-26T13:39:57;14.40;99.90
22071;DHT22;11200;51.488;6.668;2023-04-26T13:42:23;14.40;99.90
22071;DHT22;11200;51.488;6.668;2023-04-26T13:44:49;14.40;99.90
22071;DHT22;11200;51.488;6.668;2023-04-26T13:47:16;14.30;99.90
22071;DHT22;11200;51.488;6.668;2023-04-26T13:49:42;14.30;99.90
22071;DHT22;11200;51.488;6.668;2023-04-26T13:52:09;14.20;99.90
22071;DHT22;11200;51.488;6.668;2023-04-26T13:54:36;14.20;99.90
22071;DHT22;11200;51.488;6.668;2023-04-26T13:57:05;14.10;99.90
22071;DHT22;11200;51.488;6.668;2023-04-26T13:59:31;14.10;99.90
22071;DHT22;11200;51.488;6.668;2023-04-26T14:01:57;14.00;99.90
22071;DHT22;11200;51.488;6.668;2023-04-26T14:04:23;14.00;99.90
22071;DHT22;11200;51.488;6.668;2023-04-26T14:06:48;14.00;99.90
22071;DHT22;11200;51.488;6.668;2023-04-26T14:09:14;13.90;99.90
22071;DHT22;11200;51.488;6.668;2023-04-26T14:11:39;13.90;99.90
22071;DHT22;11200;51.488;6.668;2023-04-26T14:14:06;13.90;99.90
22071;DHT22;11200;51.488;6.668;2023-04-26T14:16:31;13.90;99.90
22071;DHT22;11200;51.488;6.668;2023-04-26T14:18:57;13.80;99.90
22071;DHT22;11200;51.488;6.668;2023-04-26T14:21:23;13.80;99.90
22071;DHT22;11200;51.488;6.668;2023-04-26T14:23:49;13.80;99.90
22071;DHT22;11200;51.488;6.668;2023-04-26T14:26:15;13.70;99.90
22071;DHT22;11200;51.488;6.668;2023-04-26T14:28:41;13.70;99.90
22071;DHT22;11200;51.488;6.668;2023-04-26T14:31:06;13.70;99.90
22071;DHT22;11200;51.488;6.668;2023-04-26T14:33:33;13.70;99.90
22071;DHT22;11200;51.488;6.668;2023-04-26T14:35:58;13.60;99.90
22071;DHT22;11200;51.488;6.668;2023-04-26T14:38:24;13.60;99.90
22071;DHT22;11200;51.488;6.668;2023-04-26T14:40:49;13.60;99.90
22071;DHT22;11200;51.488;6.668;2023-04-26T14:43:15;13.50;99.90
22071;DHT22;11200;51.488;6.668;2023-04-26T14:45:44;13.50;99.90
22071;DHT22;11200;51.488;6.668;2023-04-26T14:48:09;13.50;99.90
22071;DHT22;11200;51.488;6.668;2023-04-26T14:50:36;13.50;99.90
22071;DHT22;11200;51.488;6.668;2023-04-26T14:53:05;13.50;99.90
22071;DHT22;11200;51.488;6.668;2023-04-26T14:55:31;13.50;99.90
22071;DHT22;11200;51.488;6.668;2023-04-26T14:57:57;13.60;99.90
22071;DHT22;11200;51.488;6.668;2023-04-26T15:00:22;13.50;99.90
22071;DHT22;11200;51.488;6.668;2023-04-26T15:02:49;13.50;99.90
22071;DHT22;11200;51.488;6.668;2023-04-26T15:05:15;13.50;99.90
22071;DHT22;11200;51.488;6.668;2023-04-26T15:07:41;13.50;99.90
22071;DHT22;11200;51.488;6.668;2023-04-26T15:10:15;13.50;99.90
22071;DHT22;11200;51.488;6.668;2023-04-26T15:12:40;13.50;99.90
22071;DHT22;11200;51.488;6.668;2023-04-26T15:15:06;13.50;99.90
22071;DHT22;11200;51.488;6.668;2023-04-26T15:17:32;13.50;99.90
22071;DHT22;11200;51.488;6.668;2023-04-26T15:19:59;13.50;99.90
22071;DHT22;11200;51.488;6.668;2023-04-26T15:22:25;13.50;99.90
22071;DHT22;11200;51.488;6.668;2023-04-26T15:24:51;13.50;99.90
22071;DHT22;11200;51.488;6.668;2023-04-26T15:27:17;13.50;99.90
22071;DHT22;11200;51.488;6.668;2023-04-26T15:29:43;13.50;99.90
22071;DHT22;11200;51.488;6.668;2023-04-26T15:32:09;13.50;99.90
22071;DHT22;11200;51.488;6.668;2023-04-26T15:34:41;13.50;99.90
22071;DHT22;11200;51.488;6.668;2023-04-26T15:37:08;13.50;99.90
22071;DHT22;11200;51.488;6.668;2023-04-26T15:39:34;13.50;99.90
22071;DHT22;11200;51.488;6.668;2023-04-26T15:42:00;13.60;99.90
22071;DHT22;11200;51.488;6.668;2023-04-26T15:44:25;13.60;99.90
22071;DHT22;11200;51.488;6.668;2023-04-26T15:46:52;13.60;99.90
22071;DHT22;11200;51.488;6.668;2023-04-26T15:49:17;13.60;99.90
22071;DHT22;11200;51.488;6.668;2023-04-26T15:51:43;13.60;99.90
22071;DHT22;11200;51.488;6.668;2023-04-26T15:54:08;13.60;99.90
22071;DHT22;11200;51.488;6.668;2023-04-26T15:56:34;13.60;99.90
22071;DHT22;11200;51.488;6.668;2023-04-26T15:59:00;13.60;99.90
22071;DHT22;11200;51.488;6.668;2023-04-26T16:01:28;13.50;99.90